Time;durP1;ratioP1;P1;durP2;ratioP2;P2;SDS_P1;SDS_P2;PMS_P1;PMS_P2;Temp;Humidity;BMP_temperature;BMP_pressure;BME280_temperature;BME280_humidity;BME280_pressure;Samples;Min_cycle;Max_cycle;Signal;HPM_P1;HPM_P2
2019/04/06 00:02:28;;;;;;;49.5;34;;;;;;;6.89;75.87207;948.6323;;;;
2019/04/06 00:04:49;;;;;;;48.3;33.2;;;;;;;6.82;76.18066;948.6345;;;;
2019/04/06 00:07:14;;;;;;;47.9;32.4;;;;;;;6.77;76.34277;948.6046;;;;
2019/04/06 00:09:40;;;;;;;49.9;32.5;;;;;;;6.83;76.53613;948.6339;;;;
2019/04/06 00:12:05;;;;;;;49.7;34.3;;;;;;;6.86;76.90625;948.6998;;;;
2019/04/06 00:14:30;;;;;;;49.3;33.6;;;;;;;6.79;76.72168;948.6071;;;;
2019/04/06 00:16:55;;;;;;;53.9;35.4;;;;;;;6.81;76.31445;948.5922;;;;
2019/04/06 00:19:20;;;;;;;51.3;31.9;;;;;;;6.81;76.69141;948.5662;;;;
2019/04/06 00:21:46;;;;;;;53.1;33.5;;;;;;;6.85;76.5166;948.4982;;;;
2019/04/06 00:24:11;;;;;;;49;33.1;;;;;;;6.87;76.75977;948.5396;;;;
2019/04/06 00:26:36;;;;;;;52.1;35.5;;;;;;;6.82;76.90918;948.4707;;;;
2019/04/06 00:29:01;;;;;;;48.5;32.6;;;;;;;6.95;76.50195;948.4842;;;;
2019/04/06 00:32:04;;;;;;;50.7;34.2;;;;;;;7.07;76.6123;948.413;;;;
2019/04/06 00:33:51;;;;;;;54;33.9;;;;;;;6.98;76.27637;948.3438;;;;
2019/04/06 00:36:19;;;;;;;48.7;32;;;;;;;7.05;76.12891;948.3633;;;;
2019/04/06 00:38:44;;;;;;;51.8;34.6;;;;;;;7.12;76.56445;948.3652;;;;
2019/04/06 00:41:09;;;;;;;50.6;33.5;;;;;;;7.07;76.51074;948.3912;;;;
2019/04/06 00:43:34;;;;;;;54.9;35.4;;;;;;;6.92;76.27832;948.4093;;;;
2019/04/06 00:45:59;;;;;;;53.5;34.2;;;;;;;6.97;76.04688;948.3575;;;;
2019/04/06 00:48:25;;;;;;;50.8;33.4;;;;;;;6.94;75.98438;948.3992;;;;
2019/04/06 00:50:50;;;;;;;51.1;33.5;;;;;;;7;75.94824;948.3592;;;;
2019/04/06 00:53:15;;;;;;;51.1;33.5;;;;;;;6.83;76.14844;948.3311;;;;
2019/04/06 00:55:40;;;;;;;50.2;33.4;;;;;;;6.72;76.7793;948.2807;;;;
2019/04/06 00:58:05;;;;;;;49.1;33;;;;;;;6.82;76.92285;948.3148;;;;
2019/04/06 01:00:30;;;;;;;53.6;34.2;;;;;;;6.88;77.11621;948.353;;;;
2019/04/06 01:02:55;;;;;;;48.5;32.2;;;;;;;6.87;76.85059;948.3582;;;;
2019/04/06 01:05:21;;;;;;;48.5;32.6;;;;;;;6.8;76.83789;948.3904;;;;
2019/04/06 01:07:46;;;;;;;46.8;31.7;;;;;;;7.02;76.36426;948.4867;;;;
2019/04/06 01:10:11;;;;;;;49.6;33;;;;;;;6.9;76.06836;948.5238;;;;
2019/04/06 01:12:36;;;;;;;50.2;33.2;;;;;;;6.94;76.81738;948.4939;;;;
2019/04/06 01:15:02;;;;;;;49.7;32.8;;;;;;;6.85;76.71094;948.4375;;;;
2019/04/06 01:17:27;;;;;;;45.4;31.6;;;;;;;6.86;77.32813;948.4967;;;;
2019/04/06 01:19:52;;;;;;;50.9;33.6;;;;;;;6.79;76.62891;948.4606;;;;
2019/04/06 01:22:17;;;;;;;49.6;32.5;;;;;;;6.83;76.69629;948.4088;;;;
2019/04/06 01:24:42;;;;;;;46.3;32;;;;;;;6.98;76.41309;948.3786;;;;
2019/04/06 01:27:07;;;;;;;48.2;32.2;;;;;;;7.07;75.75781;948.443;;;;
2019/04/06 01:29:32;;;;;;;48.2;32.8;;;;;;;7.01;75.76953;948.4664;;;;
2019/04/06 01:31:57;;;;;;;52.8;33.6;;;;;;;7.01;75.83789;948.5134;;;;
2019/04/06 01:34:22;;;;;;;50.8;34.4;;;;;;;6.95;75.70215;948.4453;;;;
2019/04/06 01:36:47;;;;;;;51.3;32.7;;;;;;;6.96;76.51465;948.5353;;;;
2019/04/06 01:39:13;;;;;;;49.8;33.9;;;;;;;6.9;76.50195;948.468;;;;
2019/04/06 01:41:38;;;;;;;50.5;34.9;;;;;;;6.84;76.0459;948.4558;;;;
2019/04/06 01:44:03;;;;;;;48.9;33.8;;;;;;;6.9;76.95801;948.481;;;;
2019/04/06 01:46:28;;;;;;;47.8;33;;;;;;;6.85;76.01465;948.4504;;;;
2019/04/06 01:48:53;;;;;;;49.1;34.2;;;;;;;6.94;76.08789;948.4425;;;;
2019/04/06 01:51:18;;;;;;;48.7;33.7;;;;;;;7.03;75.79688;948.4037;;;;
2019/04/06 01:53:45;;;;;;;52.5;35.3;;;;;;;6.9;76.45605;948.3683;;;;
2019/04/06 01:56:10;;;;;;;47.3;32.5;;;;;;;6.81;76.47461;948.2902;;;;
2019/04/06 01:58:35;;;;;;;46.6;32.7;;;;;;;7.01;75.98633;948.2761;;;;
2019/04/06 02:01:46;;;;;;;50;34.1;;;;;;;6.97;76.61719;948.2756;;;;
2019/04/06 02:03:26;;;;;;;46.1;32.1;;;;;;;7;76.57813;948.221;;;;
2019/04/06 02:05:58;;;;;;;47.9;33;;;;;;;7.03;75.90918;948.2397;;;;
2019/04/06 02:08:23;;;;;;;46.7;31.9;;;;;;;7.05;76.12891;948.2248;;;;
2019/04/06 02:10:48;;;;;;;43.2;29.5;;;;;;;7.1;75.86523;948.1859;;;;
2019/04/06 02:13:14;;;;;;;45.1;31.5;;;;;;;7.16;76.0127;948.2191;;;;
2019/04/06 02:15:39;;;;;;;46.2;32.2;;;;;;;7.14;75.41406;948.1822;;;;
2019/04/06 02:18:04;;;;;;;45.8;30.6;;;;;;;7.17;75.71777;948.1404;;;;
2019/04/06 02:20:29;;;;;;;42.2;29.6;;;;;;;7.29;75.28125;948.1769;;;;
2019/04/06 02:22:54;;;;;;;41.9;28.8;;;;;;;7.38;74.7373;948.1424;;;;
2019/04/06 02:25:20;;;;;;;42.4;30;;;;;;;7.45;74.32715;948.1707;;;;
2019/04/06 02:27:45;;;;;;;43.4;31;;;;;;;7.37;74.9541;948.2469;;;;
2019/04/06 02:30:16;;;;;;;44.3;30.1;;;;;;;7.46;74.63672;948.1564;;;;
2019/04/06 02:32:41;;;;;;;40.5;28.7;;;;;;;7.52;74.28027;948.1774;;;;
2019/04/06 02:37:32;;;;;;;49.4;33;;;;;;;7.34;75.0166;948.2109;;;;
2019/04/06 02:42:19;;;;;;;44;30.6;;;;;;;7.35;74.7998;948.176;;;;
2019/04/06 02:44:40;;;;;;;46.7;32.8;;;;;;;7.29;75.9668;948.2288;;;;
2019/04/06 02:47:05;;;;;;;36.9;27.4;;;;;;;7.37;75.5791;948.1959;;;;
2019/04/06 02:49:31;;;;;;;46.6;31.4;;;;;;;7.48;75.0625;948.1119;;;;
2019/04/06 02:51:56;;;;;;;45.9;32;;;;;;;7.53;75.2207;948.0721;;;;
2019/04/06 02:54:21;;;;;;;47.5;32.8;;;;;;;7.48;75.22461;948.0336;;;;
2019/04/06 02:56:47;;;;;;;47.3;32.9;;;;;;;7.3;76.34473;948.0638;;;;
2019/04/06 02:59:12;;;;;;;44.4;30.9;;;;;;;7.3;75.88867;948.0767;;;;
2019/04/06 03:01:37;;;;;;;44;31.4;;;;;;;7.38;74.60059;948.0257;;;;
2019/04/06 03:04:02;;;;;;;43.2;29.1;;;;;;;7.5;74.31152;948.0969;;;;
2019/04/06 03:06:27;;;;;;;44.7;30.7;;;;;;;7.45;74.22461;948.0843;;;;
2019/04/06 03:08:52;;;;;;;42.5;29.2;;;;;;;7.51;73.84668;948.0616;;;;
2019/04/06 03:11:18;;;;;;;43.8;31;;;;;;;7.48;73.875;948.1508;;;;
2019/04/06 03:13:43;;;;;;;46;31.3;;;;;;;7.43;74.29004;948.1205;;;;
2019/04/06 03:16:08;;;;;;;40.8;29;;;;;;;7.43;74.3125;948.0078;;;;
2019/04/06 03:18:34;;;;;;;43.6;29.8;;;;;;;7.44;74.21094;948.02;;;;
2019/04/06 03:20:59;;;;;;;41.3;29.2;;;;;;;7.43;74.54102;948.0086;;;;
2019/04/06 03:23:24;;;;;;;43.4;30.4;;;;;;;7.43;74.38086;948.0475;;;;
2019/04/06 03:25:49;;;;;;;45.1;31.2;;;;;;;7.45;74.42969;948.0151;;;;
2019/04/06 03:28:14;;;;;;;43.5;29.8;;;;;;;7.48;74.59473;948.0514;;;;
2019/04/06 03:30:40;;;;;;;43;29.5;;;;;;;7.5;74.51953;948.0012;;;;
2019/04/06 03:33:05;;;;;;;43.9;30.5;;;;;;;7.55;73.7041;948.0189;;;;
2019/04/06 03:35:30;;;;;;;44.1;30.7;;;;;;;7.52;74.14551;947.9651;;;;
2019/04/06 03:37:55;;;;;;;45.4;31.8;;;;;;;7.51;74.73633;947.9924;;;;
2019/04/06 03:40:20;;;;;;;45;30.9;;;;;;;7.49;74.83594;948.0198;;;;
2019/04/06 03:42:45;;;;;;;45.8;31.1;;;;;;;7.42;75.00586;948.0353;;;;
2019/04/06 03:45:10;;;;;;;45.1;30.9;;;;;;;7.39;75.36914;948.0981;;;;
2019/04/06 03:47:35;;;;;;;42.9;31.1;;;;;;;7.32;75.37793;948.0184;;;;
2019/04/06 03:50:00;;;;;;;44.7;31.1;;;;;;;7.33;75.93848;947.9832;;;;
2019/04/06 03:52:26;;;;;;;43.4;29.9;;;;;;;7.23;76.22949;948.0051;;;;
2019/04/06 03:54:51;;;;;;;45.4;31.8;;;;;;;7.15;76.48926;948.0692;;;;
2019/04/06 03:57:17;;;;;;;43.9;30;;;;;;;7.26;76.13281;948.132;;;;
2019/04/06 03:59:42;;;;;;;45.6;30.5;;;;;;;7.21;76.53516;948.1194;;;;
2019/04/06 04:02:41;;;;;;;43.6;30.5;;;;;;;7.23;77.0293;948.07;;;;
2019/04/06 04:05:06;;;;;;;48.9;32.9;;;;;;;7.38;76.40527;948.0038;;;;
2019/04/06 04:07:31;;;;;;;44;30.9;;;;;;;7.34;76.27344;948.0642;;;;
2019/04/06 04:09:56;;;;;;;39.7;28.7;;;;;;;7.42;75.76172;948.0823;;;;
2019/04/06 04:12:21;;;;;;;42.5;30;;;;;;;7.51;75.10156;948.0442;;;;
2019/04/06 04:14:46;;;;;;;43.2;30.7;;;;;;;7.45;75.04688;948.0151;;;;
2019/04/06 04:17:11;;;;;;;46.5;32.2;;;;;;;7.39;75.61816;948.0598;;;;
2019/04/06 04:19:36;;;;;;;46.9;31.9;;;;;;;7.32;75.71973;948.144;;;;
2019/04/06 04:22:02;;;;;;;45.8;32.3;;;;;;;7.24;75.5;948.173;;;;
2019/04/06 04:24:27;;;;;;;41.4;30.4;;;;;;;7.39;75.28711;948.1808;;;;
2019/04/06 04:26:52;;;;;;;47.9;33.4;;;;;;;7.35;76.30859;948.2101;;;;
2019/04/06 04:29:17;;;;;;;48.3;33.4;;;;;;;7.23;76.37793;948.2045;;;;
2019/04/06 04:31:42;;;;;;;47.9;32.6;;;;;;;7.25;76.67969;948.1935;;;;
2019/04/06 04:34:07;;;;;;;47.6;32.3;;;;;;;7.4;76.06738;948.2311;;;;
2019/04/06 04:36:32;;;;;;;47.2;32.9;;;;;;;7.44;75.51367;948.2444;;;;
2019/04/06 04:38:57;;;;;;;44.8;32;;;;;;;7.55;75.48828;948.2905;;;;
2019/04/06 04:41:23;;;;;;;44;32;;;;;;;7.54;74.37695;948.2701;;;;
2019/04/06 04:43:48;;;;;;;51.8;33.7;;;;;;;7.38;74.80566;948.255;;;;
2019/04/06 04:46:13;;;;;;;52.6;34.9;;;;;;;7.25;76.67969;948.2753;;;;
2019/04/06 04:48:38;;;;;;;52.5;34;;;;;;;7.15;76.38672;948.3025;;;;
2019/04/06 04:51:03;;;;;;;51.1;32.9;;;;;;;7.18;77.09961;948.2349;;;;
2019/04/06 04:53:28;;;;;;;43;29.7;;;;;;;7.36;76.22949;948.2874;;;;
2019/04/06 04:55:53;;;;;;;45.6;32.4;;;;;;;7.42;75.91992;948.3292;;;;
2019/04/06 04:58:18;;;;;;;48.6;33;;;;;;;7.37;76.2207;948.3855;;;;
2019/04/06 05:00:45;;;;;;;50.9;34.6;;;;;;;7.31;76.2207;948.3175;;;;
2019/04/06 05:03:10;;;;;;;49.5;34.1;;;;;;;7.27;76.81055;948.3211;;;;
2019/04/06 05:05:35;;;;;;;45.1;31.1;;;;;;;7.27;76.58984;948.3475;;;;
2019/04/06 05:08:00;;;;;;;43.5;30.9;;;;;;;7.42;75.80566;948.4243;;;;
2019/04/06 05:10:25;;;;;;;48.8;33;;;;;;;7.51;75.32031;948.4246;;;;
2019/04/06 05:12:50;;;;;;;51.3;34.8;;;;;;;7.34;75.12891;948.4062;;;;
2019/04/06 05:15:15;;;;;;;50.8;35.1;;;;;;;7.27;75.71094;948.4383;;;;
2019/04/06 05:17:40;;;;;;;47.5;33.5;;;;;;;7.3;76.93945;948.4916;;;;
2019/04/06 05:20:06;;;;;;;47.3;32.1;;;;;;;7.36;76.22949;948.4775;;;;
2019/04/06 05:22:31;;;;;;;48.2;33.8;;;;;;;7.49;76.4375;948.4778;;;;
2019/04/06 05:24:56;;;;;;;49.4;34;;;;;;;7.42;76.13867;948.4843;;;;
2019/04/06 05:27:21;;;;;;;51.1;33.5;;;;;;;7.51;75.21777;948.5673;;;;
2019/04/06 05:29:46;;;;;;;47;33;;;;;;;7.44;75.2041;948.5435;;;;
2019/04/06 05:32:11;;;;;;;48.1;33.2;;;;;;;7.39;75.99512;948.5609;;;;
2019/04/06 05:34:36;;;;;;;54;31;;;;;;;7.53;75.70117;948.5259;;;;
2019/04/06 05:37:02;;;;;;;50.1;34.2;;;;;;;7.65;75.99609;948.5712;;;;
2019/04/06 05:39:27;;;;;;;43.3;30.6;;;;;;;7.58;75.05859;948.543;;;;
2019/04/06 05:41:52;;;;;;;47.4;33.1;;;;;;;7.67;75.64453;948.5391;;;;
2019/04/06 05:44:17;;;;;;;47.1;33;;;;;;;7.62;75.78516;948.4744;;;;
2019/04/06 05:46:42;;;;;;;46.7;33.9;;;;;;;7.58;75.70996;948.5389;;;;
2019/04/06 05:49:07;;;;;;;47.8;33.2;;;;;;;7.6;75.43945;948.5368;;;;
2019/04/06 05:51:32;;;;;;;47;33.8;;;;;;;7.57;76.0498;948.5661;;;;
2019/04/06 05:53:58;;;;;;;53;36;;;;;;;7.55;75.86426;948.5588;;;;
2019/04/06 05:56:24;;;;;;;49.7;34.8;;;;;;;7.61;75.46191;948.5538;;;;
2019/04/06 05:58:49;;;;;;;49.2;34.7;;;;;;;7.67;75.81641;948.574;;;;
2019/04/06 06:01:14;;;;;;;49.6;34.5;;;;;;;7.61;75.86328;948.6308;;;;
2019/04/06 06:03:57;;;;;;;50.9;34.6;;;;;;;7.65;75.88184;948.6102;;;;
2019/04/06 06:06:23;;;;;;;47.2;34.3;;;;;;;7.69;75.38477;948.6284;;;;
2019/04/06 06:08:48;;;;;;;49.5;34.6;;;;;;;7.66;76.0332;948.6219;;;;
2019/04/06 06:11:13;;;;;;;53.5;36.2;;;;;;;7.62;76.13965;948.6601;;;;
2019/04/06 06:13:38;;;;;;;49.8;35.2;;;;;;;7.66;75.76855;948.6875;;;;
2019/04/06 06:16:13;;;;;;;48.9;34.6;;;;;;;7.63;75.83398;948.6506;;;;
2019/04/06 06:18:38;;;;;;;49.4;33.9;;;;;;;7.67;75.82715;948.6519;;;;
2019/04/06 06:21:03;;;;;;;51.2;34.8;;;;;;;7.86;75.62012;948.5948;;;;
2019/04/06 06:23:28;;;;;;;45.8;33.5;;;;;;;8.06;74.4668;948.623;;;;
2019/04/06 06:25:53;;;;;;;52.2;36.3;;;;;;;7.86;75.28906;948.6038;;;;
2019/04/06 06:28:19;;;;;;;51;35.5;;;;;;;7.85;75.27539;948.5875;;;;
2019/04/06 06:30:44;;;;;;;50.4;36;;;;;;;7.74;75.40723;948.5667;;;;
2019/04/06 06:33:09;;;;;;;49.3;35.3;;;;;;;7.83;75.93652;948.5717;;;;
2019/04/06 06:35:34;;;;;;;47;32.4;;;;;;;7.96;74.97559;948.6026;;;;
2019/04/06 06:37:59;;;;;;;50.4;35.9;;;;;;;7.98;74.73926;948.601;;;;
2019/04/06 06:40:24;;;;;;;49.4;34.3;;;;;;;7.98;75.24219;948.588;;;;
2019/04/06 06:42:49;;;;;;;48.8;35.5;;;;;;;7.87;75.28027;948.6202;;;;
2019/04/06 06:45:14;;;;;;;53.8;36.8;;;;;;;7.82;75.60449;948.6633;;;;
2019/04/06 06:47:39;;;;;;;51.8;36.1;;;;;;;7.8;75.75977;948.6047;;;;
2019/04/06 06:50:05;;;;;;;51.2;35.9;;;;;;;7.97;75.2959;948.6238;;;;
2019/04/06 06:52:30;;;;;;;51.9;35.2;;;;;;;7.92;75.95313;948.6149;;;;
2019/04/06 06:54:55;;;;;;;52;35.7;;;;;;;7.91;76.39648;948.6417;;;;
2019/04/06 06:57:21;;;;;;;49.8;35.1;;;;;;;7.98;76.72949;948.678;;;;
2019/04/06 06:59:46;;;;;;;45.8;33;;;;;;;8.43;74.83984;948.6878;;;;
2019/04/06 07:02:11;;;;;;;49.9;34.8;;;;;;;8.28;75.12207;948.7283;;;;
2019/04/06 07:04:36;;;;;;;49.9;33;;;;;;;8.15;75.13477;948.697;;;;
2019/04/06 07:07:01;;;;;;;48.5;33.5;;;;;;;8.06;75.81738;948.7277;;;;
2019/04/06 07:09:26;;;;;;;50.4;34.5;;;;;;;8.1;75.125;948.745;;;;
2019/04/06 07:11:51;;;;;;;47.6;34.9;;;;;;;8.17;74.87598;948.7338;;;;
2019/04/06 07:14:16;;;;;;;47.1;34.4;;;;;;;7.98;75.58496;948.717;;;;
2019/04/06 07:16:41;;;;;;;48.5;34.1;;;;;;;7.9;76.22363;948.6774;;;;
2019/04/06 07:19:07;;;;;;;44.3;33.1;;;;;;;7.91;76.5332;948.6506;;;;
2019/04/06 07:21:32;;;;;;;46.2;34;;;;;;;8.06;75.64551;948.6628;;;;
2019/04/06 07:23:57;;;;;;;50.9;35.3;;;;;;;7.93;76.15918;948.6101;;;;
2019/04/06 07:26:24;;;;;;;48.5;35.6;;;;;;;8;76.52832;948.594;;;;
2019/04/06 07:28:49;;;;;;;48.5;33.9;;;;;;;8;76.7002;948.633;;;;
2019/04/06 07:31:32;;;;;;;43.4;32;;;;;;;8.18;76.54883;948.6682;;;;
2019/04/06 07:33:57;;;;;;;47.9;35.1;;;;;;;8.24;75.76855;948.6801;;;;
2019/04/06 07:36:22;;;;;;;48.2;35.2;;;;;;;8.11;75.97559;948.6228;;;;
2019/04/06 07:38:48;;;;;;;46.4;34.1;;;;;;;8.18;75.4502;948.6811;;;;
2019/04/06 07:41:13;;;;;;;47.2;34.2;;;;;;;8.25;75.99902;948.6484;;;;
2019/04/06 07:43:38;;;;;;;44.3;33.2;;;;;;;8.32;75.85156;948.7159;;;;
2019/04/06 07:46:03;;;;;;;46.3;33.7;;;;;;;8.47;75.04199;948.6194;;;;
2019/04/06 07:48:28;;;;;;;46.5;33.3;;;;;;;8.42;75.06836;948.5847;;;;
2019/04/06 07:50:53;;;;;;;48;34;;;;;;;8.53;75.22461;948.5826;;;;
2019/04/06 07:53:18;;;;;;;46.3;34.8;;;;;;;8.63;75.08203;948.5776;;;;
2019/04/06 07:55:43;;;;;;;47.4;34.4;;;;;;;8.74;74.42383;948.4894;;;;
2019/04/06 07:58:08;;;;;;;47.2;35.2;;;;;;;9.02;74.17578;948.4392;;;;
2019/04/06 08:00:33;;;;;;;45;33.8;;;;;;;9.28;72.66016;948.4483;;;;
2019/04/06 08:02:58;;;;;;;46.9;34.7;;;;;;;9.26;72.91895;948.4545;;;;
2019/04/06 08:05:23;;;;;;;46.1;34.9;;;;;;;9.32;72.5625;948.4785;;;;
2019/04/06 08:07:48;;;;;;;44.1;33.9;;;;;;;9.51;72.36426;948.4899;;;;
2019/04/06 08:10:14;;;;;;;43.4;33.4;;;;;;;9.6;72.08105;948.4895;;;;
2019/04/06 08:12:39;;;;;;;46.2;36.7;;;;;;;9.66;71.86133;948.5094;;;;
2019/04/06 08:15:04;;;;;;;45.1;36.1;;;;;;;9.56;71.55859;948.4675;;;;
2019/04/06 08:17:29;;;;;;;47.5;35.1;;;;;;;9.7;71.61523;948.4797;;;;
2019/04/06 08:19:54;;;;;;;48.5;36.7;;;;;;;9.7;72.17773;948.4276;;;;
2019/04/06 08:22:19;;;;;;;48;36.1;;;;;;;9.65;71.7207;948.4891;;;;
2019/04/06 08:24:44;;;;;;;45.5;34.6;;;;;;;9.92;71.56055;948.4567;;;;
2019/04/06 08:27:09;;;;;;;44.4;34.4;;;;;;;9.95;72.06055;948.4576;;;;
2019/04/06 08:29:35;;;;;;;42.5;33;;;;;;;10.21;70.92773;948.4276;;;;
2019/04/06 08:32:00;;;;;;;44.1;34;;;;;;;10.07;71.40039;948.4108;;;;
2019/04/06 08:34:25;;;;;;;43.2;33.2;;;;;;;10.2;71.1582;948.4756;;;;
2019/04/06 08:36:50;;;;;;;41;31.7;;;;;;;10.49;70.2627;948.4453;;;;
2019/04/06 08:39:15;;;;;;;42.1;32;;;;;;;10.39;69.11914;948.4688;;;;
2019/04/06 08:41:40;;;;;;;37.9;30.1;;;;;;;10.38;69.93359;948.3834;;;;
2019/04/06 08:44:05;;;;;;;35.8;29.1;;;;;;;10.4;69.77539;948.4729;;;;
2019/04/06 08:46:31;;;;;;;39.1;31.5;;;;;;;10.39;70.31641;948.4558;;;;
2019/04/06 08:48:55;;;;;;;38.5;30.7;;;;;;;10.45;69.74902;948.4152;;;;
2019/04/06 08:51:21;;;;;;;35.2;30.1;;;;;;;10.71;68.46875;948.444;;;;
2019/04/06 08:53:46;;;;;;;33.1;29.5;;;;;;;10.73;69.34473;948.394;;;;
2019/04/06 08:56:11;;;;;;;33;27.4;;;;;;;10.91;68.02734;948.4226;;;;
2019/04/06 08:58:36;;;;;;;35.4;29;;;;;;;11.07;67.56738;948.3884;;;;
2019/04/06 09:01:02;;;;;;;33.6;28.5;;;;;;;11.37;67.33887;948.3079;;;;
2019/04/06 09:03:27;;;;;;;34.8;29.3;;;;;;;11.13;66.95508;948.2955;;;;
2019/04/06 09:05:52;;;;;;;32.8;28.2;;;;;;;11.17;66.69531;948.2822;;;;
2019/04/06 09:08:17;;;;;;;33.6;28.6;;;;;;;11.27;66.52637;948.2583;;;;
2019/04/06 09:10:42;;;;;;;34.6;28.2;;;;;;;11.16;66.50977;948.2617;;;;
2019/04/06 09:13:07;;;;;;;30.6;26.6;;;;;;;11.39;65.83105;948.1967;;;;
2019/04/06 09:15:32;;;;;;;31.4;27.4;;;;;;;11.34;66.13379;948.1944;;;;
2019/04/06 09:17:58;;;;;;;29.5;25.8;;;;;;;11.41;64.56641;948.2033;;;;
2019/04/06 09:20:23;;;;;;;29.3;25.2;;;;;;;11.39;63.93848;948.1323;;;;
2019/04/06 09:22:48;;;;;;;29.4;26.3;;;;;;;11.37;64.58105;948.165;;;;
2019/04/06 09:25:13;;;;;;;30.9;26.2;;;;;;;11.55;64.25195;948.132;;;;
2019/04/06 09:27:38;;;;;;;29.4;26.1;;;;;;;11.95;63.54785;948.053;;;;
2019/04/06 09:30:03;;;;;;;30.9;27.1;;;;;;;12.01;63.1416;948.0903;;;;
2019/04/06 09:32:28;;;;;;;32.1;26.9;;;;;;;11.91;63;948.0623;;;;
2019/04/06 09:34:53;;;;;;;34.2;28.7;;;;;;;11.84;63.47461;947.9952;;;;
2019/04/06 09:37:18;;;;;;;34.4;27.8;;;;;;;11.75;63.70508;947.9481;;;;
2019/04/06 09:39:43;;;;;;;30.5;27.2;;;;;;;11.88;63.34277;947.9342;;;;
2019/04/06 09:42:08;;;;;;;31;27.6;;;;;;;12;63.64844;947.9083;;;;
2019/04/06 09:45:54;;;;;;;32.9;27.6;;;;;;;12.06;61.58984;947.9146;;;;
2019/04/06 09:47:11;;;;;;;31.9;27.5;;;;;;;12.29;61.51855;947.8622;;;;
2019/04/06 09:49:43;;;;;;;29.7;26.3;;;;;;;12.42;61.53613;947.8264;;;;
2019/04/06 09:57:34;;;;;;;35.5;29.1;;;;;;;12.28;62.8457;947.8289;;;;
2019/04/06 10:03:47;;;;;;;37.6;29.8;;;;;;;12.59;61.22559;947.8111;;;;
2019/04/06 10:05:16;;;;;;;36.8;29.2;;;;;;;12.67;60.09277;947.8315;;;;
2019/04/06 10:10:23;;;;;;;34.1;28.4;;;;;;;13.02;59.45605;947.7355;;;;
2019/04/06 10:12:40;;;;;;;35.6;28;;;;;;;13.08;59.5;947.7283;;;;
2019/04/06 10:14:54;;;;;;;33.2;26.7;;;;;;;13.4;58.37402;947.6473;;;;
2019/04/06 10:17:34;;;;;;;32.7;27.2;;;;;;;13.21;58.18652;947.6124;;;;
2019/04/06 10:19:46;;;;;;;34.7;27.7;;;;;;;13.07;58.20215;947.572;;;;
2019/04/06 10:22:24;;;;;;;33.3;27.5;;;;;;;13;58.95801;947.541;;;;
2019/04/06 10:24:55;;;;;;;35.7;27.8;;;;;;;12.87;58.3623;947.6256;;;;
2019/04/06 10:27:01;;;;;;;34.5;27.8;;;;;;;12.8;58.9873;947.6428;;;;
2019/04/06 10:39:10;;;;;;;29.2;25.5;;;;;;;13.66;56.47266;947.3937;;;;
2019/04/06 10:41:30;;;;;;;29.1;24.3;;;;;;;13.92;55.71777;947.4109;;;;
2019/04/06 10:46:32;;;;;;;30;23.1;;;;;;;14.42;53.25098;947.3757;;;;
2019/04/06 10:48:52;;;;;;;27.9;23.6;;;;;;;14.37;52.69824;947.3337;;;;
2019/04/06 10:51:12;;;;;;;27.1;23.5;;;;;;;14.34;54.43652;947.2891;;;;
2019/04/06 10:53:38;;;;;;;26;23.1;;;;;;;14.16;53.96191;947.2542;;;;
2019/04/06 10:57:15;;;;;;;26.7;21.3;;;;;;;13.54;54.69531;947.2422;;;;
2019/04/06 10:59:03;;;;;;;24.5;20.7;;;;;;;13.5;55.36426;947.1855;;;;
2019/04/06 11:00:55;;;;;;;25.1;20.3;;;;;;;13.91;54.51074;947.2064;;;;
2019/04/06 11:03:20;;;;;;;22.3;18.8;;;;;;;14.1;53.43164;947.184;;;;
2019/04/06 11:05:48;;;;;;;25.1;20;;;;;;;14.01;54.03418;947.1075;;;;
2019/04/06 11:11:11;;;;;;;19.7;17.6;;;;;;;14.45;52.02344;947.0229;;;;
2019/04/06 11:13:13;;;;;;;20.2;17.8;;;;;;;14.65;52.20996;946.9802;;;;
2019/04/06 11:15:41;;;;;;;20.1;18;;;;;;;14.71;51.84473;946.9382;;;;
2019/04/06 11:20:17;;;;;;;18.5;15.8;;;;;;;15.07;50.84082;946.9416;;;;
2019/04/06 11:22:45;;;;;;;17.9;15.3;;;;;;;15.22;50.18359;946.8393;;;;
2019/04/06 11:25:19;;;;;;;17.4;15.5;;;;;;;15.14;50.38477;946.8007;;;;
2019/04/06 11:30:05;;;;;;;21;17.7;;;;;;;14.58;51.94531;946.8889;;;;
2019/04/06 11:32:26;;;;;;;20.6;17.5;;;;;;;15.15;51.26855;946.8744;;;;
2019/04/06 11:35:00;;;;;;;19.1;16;;;;;;;15.97;47.39258;946.8699;;;;
2019/04/06 11:37:14;;;;;;;18.5;16.4;;;;;;;16.26;46.92285;946.8367;;;;
2019/04/06 11:40:36;;;;;;;16.8;15;;;;;;;16.46;47.02539;946.7186;;;;
2019/04/06 11:42:34;;;;;;;17.7;14.8;;;;;;;16.43;46.33398;946.9017;;;;
2019/04/06 11:44:28;;;;;;;19.2;15.5;;;;;;;16.13;47.85254;946.8184;;;;
2019/04/06 11:47:12;;;;;;;16.4;14.7;;;;;;;15.51;48.22754;946.8103;;;;
2019/04/06 11:49:24;;;;;;;18.1;15.6;;;;;;;15.01;49.82227;946.7654;;;;
2019/04/06 11:51:41;;;;;;;17.2;15;;;;;;;15.52;50.58008;946.748;;;;
2019/04/06 11:54:15;;;;;;;17.5;15.6;;;;;;;15.6;48.75977;946.7601;;;;
2019/04/06 11:59:21;;;;;;;18.6;15.1;;;;;;;16.76;45.35254;946.6752;;;;
2019/04/06 12:01:42;;;;;;;16.9;15.1;;;;;;;17.22;44.44141;946.7755;;;;
2019/04/06 12:05:20;;;;;;;18.6;15;;;;;;;18.6;41.14648;946.7438;;;;
2019/04/06 12:06:31;;;;;;;17;14.2;;;;;;;21.05;37.80371;946.6927;;;;
2019/04/06 12:08:56;;;;;;;17.4;15.5;;;;;;;20.49;36.60254;946.7495;;;;
2019/04/06 12:14:24;;;;;;;18.8;15.9;;;;;;;19.79;38.37793;946.6233;;;;
2019/04/06 12:17:01;;;;;;;19.4;16.2;;;;;;;18.79;39.86328;946.6869;;;;
2019/04/06 12:19:17;;;;;;;19.1;15.7;;;;;;;19.86;38.6543;946.7454;;;;
2019/04/06 12:24:04;;;;;;;17.6;15.3;;;;;;;22.04;32.99707;946.6479;;;;
2019/04/06 12:27:14;;;;;;;17.1;15;;;;;;;22.3;32.60352;946.6558;;;;
2019/04/06 12:29:05;;;;;;;16.4;14.8;;;;;;;22.49;32.66406;946.68;;;;
2019/04/06 12:31:20;;;;;;;16.6;14.9;;;;;;;22.63;33.23047;946.7542;;;;
2019/04/06 12:33:52;;;;;;;17.7;15.8;;;;;;;21.69;33.59668;946.7544;;;;
2019/04/06 12:36:18;;;;;;;16.8;15;;;;;;;21.75;34.60547;946.6972;;;;
2019/04/06 12:41:22;;;;;;;16;14.4;;;;;;;22.31;32.91113;946.7474;;;;
2019/04/06 12:43:53;;;;;;;16.7;15;;;;;;;22.29;33.2168;946.7022;;;;
2019/04/06 12:46:19;;;;;;;16.2;14.6;;;;;;;22.1;33.79297;946.7181;;;;
2019/04/06 12:51:26;;;;;;;14.9;13.5;;;;;;;21.19;34.50293;946.7503;;;;
2019/04/06 12:53:19;;;;;;;14.7;13.2;;;;;;;21.04;35.20898;946.7736;;;;
2019/04/06 13:01:29;;;;;;;14.7;13.2;;;;;;;20.55;36.14844;946.8113;;;;
2019/04/06 13:04:16;;;;;;;14.1;12.6;;;;;;;22.5;31.58789;946.8558;;;;
2019/04/06 13:06:56;;;;;;;14.3;12.8;;;;;;;21.74;33.17578;946.6676;;;;
2019/04/06 13:13:53;;;;;;;12.6;11.3;;;;;;;22.67;32.5957;946.6328;;;;
2019/04/06 13:25:26;;;;;;;11.9;10.6;;;;;;;23.24;31.36914;946.4894;;;;
2019/04/06 13:27:55;;;;;;;12.9;11.5;;;;;;;22.94;33.92871;946.5106;;;;
2019/04/06 13:30:28;;;;;;;12.5;11.3;;;;;;;22.77;31.92773;946.5027;;;;
2019/04/06 13:32:51;;;;;;;12.9;11.6;;;;;;;22.7;32.97559;946.5439;;;;
2019/04/06 13:35:12;;;;;;;12.9;11.6;;;;;;;23.64;34.17188;946.4348;;;;
2019/04/06 13:41:09;;;;;;;12.1;10.9;;;;;;;23.66;30.52148;946.4085;;;;
2019/04/06 13:43:40;;;;;;;11.8;10.7;;;;;;;23.79;31.78711;946.3663;;;;
2019/04/06 13:46:09;;;;;;;11.3;10.3;;;;;;;24.25;30.16992;946.4054;;;;
2019/04/06 13:48:25;;;;;;;12.7;11.4;;;;;;;24.19;29.33398;946.4169;;;;
2019/04/06 13:50:51;;;;;;;11.6;10.3;;;;;;;24.4;29.05078;946.3868;;;;
2019/04/06 13:55:40;;;;;;;11.7;10.5;;;;;;;23.26;31.15625;946.4339;;;;
2019/04/06 13:58:04;;;;;;;10.9;9.8;;;;;;;23.11;30.51953;946.3814;;;;
2019/04/06 14:00:29;;;;;;;11.9;9.9;;;;;;;23.57;30.74023;946.3303;;;;
2019/04/06 14:02:53;;;;;;;10.8;9.7;;;;;;;23.89;30.70313;946.358;;;;
2019/04/06 14:08:51;;;;;;;10.3;9.4;;;;;;;22.11;33.36914;946.2817;;;;
2019/04/06 14:11:28;;;;;;;10.7;9.7;;;;;;;21.84;33.99805;946.2938;;;;
2019/04/06 14:16:20;;;;;;;11.2;10;;;;;;;21.21;34.78711;946.2175;;;;
2019/04/06 14:18:50;;;;;;;10.7;9.8;;;;;;;20.55;36.77246;946.2723;;;;
2019/04/06 14:24:38;;;;;;;10.9;9.8;;;;;;;21.39;35.17871;946.2523;;;;
2019/04/06 14:29:30;;;;;;;12.4;9.8;;;;;;;21.77;34.12207;946.2064;;;;
2019/04/06 14:31:52;;;;;;;10.5;9.3;;;;;;;22.22;35.11523;946.2292;;;;
2019/04/06 14:34:49;;;;;;;9.9;9;;;;;;;22.39;32.74023;946.1325;;;;
2019/04/06 14:36:41;;;;;;;10;9;;;;;;;22.74;32.29199;946.2324;;;;
2019/04/06 14:39:10;;;;;;;10;9;;;;;;;22.39;32.83398;946.2827;;;;
2019/04/06 14:43:55;;;;;;;9.5;8.6;;;;;;;21.8;33.06152;946.2427;;;;
2019/04/06 14:52:31;;;;;;;10.1;9.1;;;;;;;19.04;39.39258;946.2056;;;;
2019/04/06 14:54:58;;;;;;;9.7;8.8;;;;;;;18.38;41.08008;946.1892;;;;
2019/04/06 14:57:18;;;;;;;10;9;;;;;;;18.12;42.16797;946.2177;;;;
2019/04/06 14:59:44;;;;;;;10.4;9.1;;;;;;;18;41.54688;946.1859;;;;
2019/04/06 15:06:53;;;;;;;11;9.9;;;;;;;17.13;44.19922;946.2175;;;;
2019/04/06 15:12:37;;;;;;;12.3;10.3;;;;;;;16.96;44.88281;946.2047;;;;
2019/04/06 15:16:47;;;;;;;11.2;10.1;;;;;;;16.78;46.90723;946.1848;;;;
2019/04/06 15:22:32;;;;;;;11;9.9;;;;;;;16.96;44.95313;946.1387;;;;
2019/04/06 15:35:35;;;;;;;10.8;9.7;;;;;;;16.23;47.10449;946.0172;;;;
2019/04/06 15:38:00;;;;;;;10.6;9.3;;;;;;;16.12;46.41797;946.0002;;;;
2019/04/06 15:40:20;;;;;;;10.6;9.1;;;;;;;16;46.98828;945.9938;;;;
2019/04/06 15:42:48;;;;;;;9.6;8.6;;;;;;;15.94;46.52734;946.085;;;;
2019/04/06 15:45:12;;;;;;;9.3;8.4;;;;;;;15.92;46.90918;946.088;;;;
2019/04/06 15:47:43;;;;;;;8.4;7.6;;;;;;;15.88;45.42383;946.0321;;;;
2019/04/06 15:50:10;;;;;;;11.4;8.3;;;;;;;16;45.69434;945.9372;;;;
2019/04/06 15:52:39;;;;;;;8.5;7.6;;;;;;;15.92;45.18457;945.9656;;;;
2019/04/06 15:54:56;;;;;;;8.2;7.4;;;;;;;15.83;46.27051;945.9503;;;;
2019/04/06 15:57:24;;;;;;;8.1;7.3;;;;;;;15.91;45.44043;945.9182;;;;
2019/04/06 16:00:20;;;;;;;11.8;7.8;;;;;;;15.95;45.6543;945.8908;;;;
2019/04/06 16:03:04;;;;;;;8.5;7.6;;;;;;;15.86;46.21582;945.9028;;;;